virtualACA

Welcome To Calgary International Airport CYYC

Hub Roster

Pilot Domicile Rank
Ethan Title - ACA1641CanadaChief Pilot
Graham Dawson - ACA2317CanadaChief Pilot
Rashaido Brown - ACA3288JamaicaFirst Officer
Brian Robinson - ACA3342United StatesSecond Officer
Ken MacELmon - ACA3352CanadaNew Hire
Alejandro Pedroza - ACA3359CanadaNew Hire

Current Vatsim Weather


CYYC 171200Z 36009G16KT 220V020 20SM FEW090 BKN240 12/01 A2971 RMK AC1CI6 AC TR WSHFT 1154 SLP057 DENSITY ALT 4400FT
Calgary International Airport